Grete Maersk — OYCY2 — position and weather

sailwx.info

Track history (hours):
 
Tides and Currents Weather Stations Pressure Air Temp Water Temp Dewpoint Dewpoint Depression Visibility Wind Speed Wind Dir Waves Ship Positions

Grete Maersk

Last reported at 2016-May-28 04:25 UTC. Time now 2016-May-28 08:00 UTC.
Position N 22°28' E 113°53'.

MMSI: 218824136.

Date/timePositionNaut miles runAvg speedWind from/ knotsBaromVisibWave heightAir tempDewpointWater temp
2016-May-28 04:25N 22°28' E 113°53'0 0.0
2016-May-28 03:13N 22°28' E 113°53'0 0.0
2016-May-28 02:19N 22°28' E 113°53'0 0.0
2016-May-28 00:31N 22°28' E 113°53'4 4.0
2016-May-27 23:31N 22°24' E 113°51'1312.6
2016-May-27 22:31N 22°12' E 113°50'64417.7
2016-May-26 10:04N 29°38' E 122°26'1017.5
2016-May-26 09:30N 29°45' E 122°18'1111.4
2016-May-26 08:32N 29°54' E 122°10'6 1.1
2016-May-26 02:33N 29°53' E 122°03'0 0.0
2016-May-25 22:33N 29°53' E 122°03'0 0.0
2016-May-25 21:33N 29°53' E 122°03'0 0.0
2016-May-25 20:27N 29°53' E 122°03'0 0.0
2016-May-25 19:33N 29°53' E 122°03'0 0.0
2016-May-25 16:33N 29°53' E 122°03'0 0.0
2016-May-25 14:15N 29°53' E 122°03'0 0.0
2016-May-25 13:33N 29°53' E 122°03'0 0.0
2016-May-25 12:33N 29°53' E 122°03'0 0.1
2016-May-25 11:33N 29°54' E 122°03'4 4.3
2016-May-25 10:33N 29°55' E 122°07'1111.0
2016-May-25 09:33N 29°47' E 122°16'10 9.9
2016-May-25 08:33N 29°43' E 122°26'6 5.7
2016-May-25 07:33N 29°43' E 122°33'4 3.6
2016-May-25 06:32N 29°46' E 122°36'7 7.1
2016-May-25 05:31N 29°52' E 122°41'32 7.4
2016-May-25 01:12N 30°21' E 122°55'1015.4
2016-May-25 00:32N 30°28' E 122°45'2016.7
2016-May-24 23:21N 30°32' E 122°23'1315.7
2016-May-24 22:32N 30°35' E 122°08'5 4.9
2016-May-24 21:30N 30°37' E 122°03'0 0.0
2016-May-24 20:27N 30°37' E 122°03'0 0.0
2016-May-24 19:33N 30°37' E 122°03'0 0.0
2016-May-24 05:33N 30°37' E 122°03'5 5.2
2016-May-24 04:33N 30°35' E 122°09'1411.0
2016-May-24 03:16N 30°33' E 122°25'2212.1
2016-May-24 01:25N 30°34' E 122°51'  
Track history (hours):
 
Tides and Currents Weather Stations Pressure Air Temp Water Temp Dewpoint Dewpoint Depression Visibility Wind Speed Wind Dir Waves Ship Positions

Grete Maersk

Last reported at 2016-May-28 04:25 UTC. Time now 2016-May-28 08:00 UTC.
Position N 22°28' E 113°53'.

MMSI: 218824136.

Date/timePositionNaut miles runAvg speedWind from/ knotsBaromVisibWave heightAir tempDewpointWater temp
2016-May-28 04:25N 22°28' E 113°53'0 0.0
2016-May-28 03:13N 22°28' E 113°53'0 0.0
2016-May-28 02:19N 22°28' E 113°53'0 0.0
2016-May-28 00:31N 22°28' E 113°53'4 4.0
2016-May-27 23:31N 22°24' E 113°51'1312.6
2016-May-27 22:31N 22°12' E 113°50'64417.7
2016-May-26 10:04N 29°38' E 122°26'1017.5
2016-May-26 09:30N 29°45' E 122°18'1111.4
2016-May-26 08:32N 29°54' E 122°10'6 1.1
2016-May-26 02:33N 29°53' E 122°03'0 0.0
2016-May-25 22:33N 29°53' E 122°03'0 0.0
2016-May-25 21:33N 29°53' E 122°03'0 0.0
2016-May-25 20:27N 29°53' E 122°03'0 0.0
2016-May-25 19:33N 29°53' E 122°03'0 0.0
2016-May-25 16:33N 29°53' E 122°03'0 0.0
2016-May-25 14:15N 29°53' E 122°03'0 0.0
2016-May-25 13:33N 29°53' E 122°03'0 0.0
2016-May-25 12:33N 29°53' E 122°03'0 0.1
2016-May-25 11:33N 29°54' E 122°03'4 4.3
2016-May-25 10:33N 29°55' E 122°07'1111.0
2016-May-25 09:33N 29°47' E 122°16'10 9.9
2016-May-25 08:33N 29°43' E 122°26'6 5.7
2016-May-25 07:33N 29°43' E 122°33'4 3.6
2016-May-25 06:32N 29°46' E 122°36'7 7.1
2016-May-25 05:31N 29°52' E 122°41'32 7.4
2016-May-25 01:12N 30°21' E 122°55'1015.4
2016-May-25 00:32N 30°28' E 122°45'2016.7
2016-May-24 23:21N 30°32' E 122°23'1315.7
2016-May-24 22:32N 30°35' E 122°08'5 4.9
2016-May-24 21:30N 30°37' E 122°03'0 0.0
2016-May-24 20:27N 30°37' E 122°03'0 0.0
2016-May-24 19:33N 30°37' E 122°03'0 0.0
2016-May-24 05:33N 30°37' E 122°03'5 5.2
2016-May-24 04:33N 30°35' E 122°09'1411.0
2016-May-24 03:16N 30°33' E 122°25'2212.1
2016-May-24 01:25N 30°34' E 122°51'  

Dump ship's entire track history